Time;durP1;ratioP1;P1;durP2;ratioP2;P2;SDS_P1;SDS_P2;PMS_P1;PMS_P2;Temp;Humidity;BMP_temperature;BMP_pressure;BME280_temperature;BME280_humidity;BME280_pressure;Samples;Min_cycle;Max_cycle;Signal;HPM_P1;HPM_P2
2024/04/11 00:01:20;;;;;;;9.10;3.53;;;;;;;4.27;100.00;98041.56;5402391;26;20619;-68
2024/04/11 00:03:45;;;;;;;5.78;3.28;;;;;;;4.31;100.00;98037.19;5385314;26;20457;-67
2024/04/11 00:06:10;;;;;;;6.43;3.38;;;;;;;4.26;100.00;98032.63;5361762;26;20004;-68
2024/04/11 00:08:36;;;;;;;8.77;3.40;;;;;;;4.25;100.00;98041.88;5371476;26;20051;-68
2024/04/11 00:11:01;;;;;;;12.13;3.72;;;;;;;4.22;100.00;98039.75;5383375;26;20081;-70
2024/04/11 00:13:27;;;;;;;10.95;3.08;;;;;;;4.10;100.00;98042.88;5369913;26;20015;-69
2024/04/11 00:15:55;;;;;;;9.82;3.30;;;;;;;4.09;100.00;98049.41;5369399;26;20739;-68
2024/04/11 00:18:21;;;;;;;10.18;4.38;;;;;;;4.02;100.00;98047.03;5361913;26;20349;-69
2024/04/11 00:20:47;;;;;;;10.68;3.72;;;;;;;3.96;100.00;98041.97;5382044;26;20003;-67
2024/04/11 00:23:12;;;;;;;11.18;3.50;;;;;;;3.96;100.00;98047.38;5385225;26;20074;-68
2024/04/11 00:25:38;;;;;;;9.00;3.22;;;;;;;4.00;100.00;98043.03;5374601;26;20000;-68
2024/04/11 00:28:03;;;;;;;8.57;3.10;;;;;;;4.04;100.00;98038.63;5385497;26;19999;-71
2024/04/11 00:30:28;;;;;;;5.53;3.67;;;;;;;3.91;100.00;98029.31;5396926;26;20015;-70
2024/04/11 00:32:54;;;;;;;7.82;3.55;;;;;;;3.87;100.00;98028.28;5398425;26;20751;-68
2024/04/11 00:35:20;;;;;;;11.50;3.67;;;;;;;3.73;100.00;98024.66;5377965;26;20003;-68
2024/04/11 00:37:48;;;;;;;9.25;4.05;;;;;;;3.58;100.00;98029.16;5397403;26;19995;-68
2024/04/11 00:40:14;;;;;;;8.07;3.80;;;;;;;3.53;100.00;98020.25;5389953;26;20022;-69
2024/04/11 00:42:40;;;;;;;6.07;3.53;;;;;;;3.62;100.00;98023.97;5396613;26;20457;-67
2024/04/11 00:45:07;;;;;;;8.75;3.38;;;;;;;3.65;100.00;98028.78;5374491;26;20060;-67
2024/04/11 00:47:33;;;;;;;8.88;3.50;;;;;;;3.56;100.00;98022.41;5394674;26;20004;-67
2024/04/11 00:49:59;;;;;;;9.07;3.70;;;;;;;3.49;100.00;98019.22;5379945;26;20000;-67
2024/04/11 00:52:25;;;;;;;13.45;3.97;;;;;;;3.49;100.00;98011.91;5368856;26;20125;-68
2024/04/11 00:54:51;;;;;;;9.63;3.83;;;;;;;3.68;100.00;98008.47;5374713;26;20400;-67
2024/04/11 00:57:17;;;;;;;9.52;4.32;;;;;;;3.72;100.00;98014.91;5356488;26;20019;-66
2024/04/11 00:59:43;;;;;;;7.25;3.58;;;;;;;3.66;100.00;98008.75;5369378;26;20753;-68
2024/04/11 01:02:09;;;;;;;8.52;3.80;;;;;;;3.55;100.00;98004.53;5350944;26;20010;-67
2024/04/11 01:04:35;;;;;;;7.40;3.47;;;;;;;3.47;100.00;98002.47;5369099;26;19999;-67
2024/04/11 01:07:06;;;;;;;10.50;3.33;;;;;;;3.45;100.00;98000.84;5360675;26;20355;-69
2024/04/11 01:09:34;;;;;;;9.43;3.70;;;;;;;3.49;100.00;98008.38;5368059;26;20195;-68
2024/04/11 01:12:03;;;;;;;5.00;3.28;;;;;;;3.45;100.00;98002.75;5365667;26;20461;-66
2024/04/11 01:14:31;;;;;;;6.57;3.38;;;;;;;3.52;100.00;98005.91;5371858;26;20111;-69
2024/04/11 01:16:57;;;;;;;7.05;4.13;;;;;;;3.53;100.00;98006.72;5359995;26;20015;-68
2024/04/11 01:19:23;;;;;;;8.02;3.53;;;;;;;3.56;100.00;97993.41;5365031;26;19997;-67
2024/04/11 01:21:49;;;;;;;5.80;3.05;;;;;;;3.40;100.00;97987.38;5373864;26;20000;-67
2024/04/11 01:24:15;;;;;;;6.45;3.42;;;;;;;3.38;100.00;97994.16;5362899;26;20011;-70
2024/04/11 01:26:40;;;;;;;5.95;3.83;;;;;;;3.41;100.00;97985.47;5375297;26;20000;-67
2024/04/11 01:29:07;;;;;;;5.28;3.42;;;;;;;3.42;100.00;97982.47;5356176;26;20032;-69
2024/04/11 01:31:37;;;;;;;6.78;3.40;;;;;;;3.31;100.00;97977.44;5363860;26;20070;-67
2024/04/11 01:34:04;;;;;;;7.82;3.75;;;;;;;3.22;100.00;97971.84;5368486;26;20031;-71
2024/04/11 01:36:30;;;;;;;7.68;3.65;;;;;;;3.14;100.00;97972.50;5363188;26;20034;-67
2024/04/11 01:38:55;;;;;;;8.93;3.90;;;;;;;3.20;100.00;97976.75;5377726;26;20126;-69
2024/04/11 01:41:21;;;;;;;9.27;3.75;;;;;;;3.18;100.00;97976.22;5351777;26;20381;-68
2024/04/11 01:43:46;;;;;;;6.93;4.28;;;;;;;3.09;100.00;97977.94;5362861;26;20059;-69
2024/04/11 01:46:18;;;;;;;9.98;3.83;;;;;;;3.03;100.00;97974.50;5387647;26;20018;-70
2024/04/11 01:48:46;;;;;;;8.32;3.90;;;;;;;3.09;100.00;97973.34;5398908;26;20030;-69
2024/04/11 01:51:13;;;;;;;6.97;3.53;;;;;;;2.92;100.00;97973.78;5372234;26;20460;-68
2024/04/11 01:53:39;;;;;;;7.63;3.33;;;;;;;2.86;100.00;97964.91;5358970;26;20005;-67
2024/04/11 01:56:05;;;;;;;9.35;3.65;;;;;;;2.87;100.00;97965.72;5354354;26;20000;-67
2024/04/11 01:58:31;;;;;;;7.50;3.72;;;;;;;2.65;100.00;97953.47;5369431;26;20027;-68
2024/04/11 02:01:09;;;;;;;9.35;3.75;;;;;;;2.56;100.00;97947.06;5356171;26;20000;-70
2024/04/11 02:03:43;;;;;;;10.40;4.57;;;;;;;3.11;100.00;97940.56;5360720;26;20292;-68
2024/04/11 02:06:11;;;;;;;8.93;4.22;;;;;;;3.49;100.00;97940.66;5385704;26;20013;-68
2024/04/11 02:08:37;;;;;;;12.50;4.85;;;;;;;3.82;100.00;97934.28;5362153;26;20048;-69
2024/04/11 02:11:04;;;;;;;10.30;4.13;;;;;;;3.98;100.00;97940.28;5358043;26;20000;-72
2024/04/11 02:13:30;;;;;;;10.82;4.15;;;;;;;3.99;100.00;97950.03;5362785;26;20032;-70
2024/04/11 02:15:55;;;;;;;8.18;4.35;;;;;;;4.00;100.00;97953.56;5368492;26;20036;-70
2024/04/11 02:18:21;;;;;;;10.07;4.15;;;;;;;4.01;100.00;97953.25;5370891;26;20004;-69
2024/04/11 02:20:47;;;;;;;13.82;4.97;;;;;;;3.98;100.00;97955.72;5363694;26;20327;-68
2024/04/11 02:23:13;;;;;;;14.88;6.53;;;;;;;3.99;100.00;97952.72;5354378;26;20049;-70
2024/04/11 02:25:39;;;;;;;10.73;4.25;;;;;;;3.93;100.00;97953.13;5363587;26;20046;-69
2024/04/11 02:28:05;;;;;;;7.32;4.15;;;;;;;3.93;100.00;97961.25;5354465;26;20011;-69
2024/04/11 02:30:31;;;;;;;10.38;4.43;;;;;;;3.91;100.00;97961.53;5375763;26;20527;-69
2024/04/11 02:32:57;;;;;;;11.13;4.07;;;;;;;3.90;100.00;97959.13;5374835;26;20003;-69
2024/04/11 02:35:22;;;;;;;9.45;4.32;;;;;;;3.89;100.00;97962.91;5333440;26;20623;-68
2024/04/11 02:37:54;;;;;;;9.82;4.05;;;;;;;3.82;100.00;97968.72;5342135;26;20078;-69
2024/04/11 02:40:22;;;;;;;9.00;4.00;;;;;;;3.79;100.00;97975.50;5338592;26;20393;-69
2024/04/11 02:42:48;;;;;;;9.30;3.97;;;;;;;3.70;100.00;97966.41;5350525;26;20024;-68
2024/04/11 02:45:15;;;;;;;10.63;3.80;;;;;;;3.51;100.00;97969.09;5366097;26;20441;-68
2024/04/11 02:47:44;;;;;;;5.97;3.65;;;;;;;3.49;100.00;97959.63;5363001;26;20039;-68
2024/04/11 02:50:17;;;;;;;6.22;2.78;;;;;;;3.36;100.00;97964.66;5367133;26;20004;-70
2024/04/11 02:52:45;;;;;;;8.38;3.60;;;;;;;3.42;100.00;97963.50;5377745;26;20016;-68
2024/04/11 02:55:14;;;;;;;8.73;3.90;;;;;;;3.33;100.00;97967.13;5355116;26;20509;-68
2024/04/11 02:57:40;;;;;;;;;;;;;;;3.38;100.00;97970.56;5371067;26;20000;-67
2024/04/11 03:00:06;;;;;;;6.53;4.07;;;;;;;3.37;100.00;97970.88;5357502;26;20289;-67
2024/04/11 03:02:33;;;;;;;6.97;3.45;;;;;;;3.37;100.00;97968.19;5362526;26;20355;-70
2024/04/11 03:05:00;;;;;;;8.35;3.72;;;;;;;3.33;100.00;97975.25;5376911;26;19997;-69
2024/04/11 03:07:27;;;;;;;8.45;4.07;;;;;;;3.30;100.00;97968.53;5352994;26;20044;-69
2024/04/11 03:09:53;;;;;;;7.60;3.92;;;;;;;3.21;100.00;97976.47;5359185;26;20044;-68
2024/04/11 03:12:20;;;;;;;4.78;3.03;;;;;;;3.35;100.00;97984.72;5369136;26;20479;-67
2024/04/11 03:14:46;;;;;;;7.40;3.55;;;;;;;3.38;100.00;97981.41;5382949;26;20015;-68
2024/04/11 03:17:12;;;;;;;7.65;3.60;;;;;;;3.31;100.00;97975.53;5390571;26;19995;-68
2024/04/11 03:19:38;;;;;;;9.77;3.58;;;;;;;3.32;100.00;97979.06;5380214;26;20680;-68
2024/04/11 03:22:04;;;;;;;6.60;3.08;;;;;;;3.21;100.00;97973.75;5355717;26;20032;-68
2024/04/11 03:24:29;;;;;;;8.38;3.60;;;;;;;3.01;100.00;97980.19;5367577;26;20007;-68
2024/04/11 03:26:54;;;;;;;9.05;3.65;;;;;;;2.86;100.00;97983.03;5350027;26;20455;-68
2024/04/11 03:29:20;;;;;;;8.00;3.75;;;;;;;2.92;100.00;97975.66;5356970;26;21146;-69
2024/04/11 03:31:45;;;;;;;11.25;3.50;;;;;;;2.90;100.00;97981.38;5368538;26;20012;-66
2024/04/11 03:34:11;;;;;;;7.03;3.60;;;;;;;2.90;100.00;97975.16;5335052;26;20011;-68
2024/04/11 03:36:37;;;;;;;7.93;3.70;;;;;;;2.78;100.00;97976.34;5346300;26;20011;-70
2024/04/11 03:39:11;;;;;;;8.35;3.72;;;;;;;2.72;100.00;97969.38;5354444;26;20015;-69
2024/04/11 03:41:40;;;;;;;14.50;4.50;;;;;;;2.76;100.00;97969.63;5367005;26;20459;-69
2024/04/11 03:44:06;;;;;;;8.00;3.90;;;;;;;2.66;100.00;97973.19;5329282;26;20014;-68
2024/04/11 03:46:36;;;;;;;9.55;4.38;;;;;;;2.70;100.00;97979.66;5394599;26;20226;-66
2024/04/11 03:49:02;;;;;;;8.32;4.13;;;;;;;2.85;100.00;97976.81;5346389;26;20077;-70
2024/04/11 03:51:30;;;;;;;7.28;4.00;;;;;;;2.82;100.00;97971.97;5370568;26;20074;-67
2024/04/11 03:53:56;;;;;;;9.48;4.43;;;;;;;2.96;100.00;97977.53;5361991;26;20750;-67
2024/04/11 03:56:23;;;;;;;8.27;4.20;;;;;;;2.89;100.00;97978.97;5355217;26;20020;-70
2024/04/11 03:58:49;;;;;;;10.73;4.22;;;;;;;2.73;100.00;97975.59;5351363;26;20360;-69
2024/04/11 04:01:15;;;;;;;11.10;4.35;;;;;;;2.52;100.00;97974.94;5339139;26;20045;-69
2024/04/11 04:03:47;;;;;;;8.13;3.65;;;;;;;2.51;100.00;97976.03;5364990;26;20000;-70
2024/04/11 04:06:13;;;;;;;6.07;3.38;;;;;;;2.38;100.00;97978.28;5368314;26;20004;-68
2024/04/11 04:08:40;;;;;;;10.38;4.38;;;;;;;2.28;100.00;97983.75;5362727;26;20019;-69
2024/04/11 04:11:06;;;;;;;10.48;4.07;;;;;;;2.31;100.00;97985.13;5354800;26;19996;-70
2024/04/11 04:13:39;;;;;;;7.28;3.40;;;;;;;2.25;100.00;97987.03;5371054;26;20000;-69
2024/04/11 04:16:14;;;;;;;11.48;4.53;;;;;;;2.05;100.00;97987.97;5345870;26;20008;-68
2024/04/11 04:18:46;;;;;;;7.15;3.97;;;;;;;2.05;100.00;98001.47;5344276;26;20043;-68
2024/04/11 04:21:16;;;;;;;10.75;3.95;;;;;;;2.24;100.00;97993.53;5389269;26;20036;-68
2024/04/11 04:23:48;;;;;;;8.98;4.30;;;;;;;2.28;100.00;97994.59;5372684;26;20012;-68
2024/04/11 04:26:18;;;;;;;6.97;4.03;;;;;;;2.28;100.00;98002.69;5354073;26;20646;-68
2024/04/11 04:28:43;;;;;;;;;;;;;;;2.21;100.00;98004.91;5360463;26;19997;-68
2024/04/11 04:31:22;;;;;;;8.80;4.60;;;;;;;2.10;100.00;98010.34;5351766;26;19925;-68
2024/04/11 04:33:53;;;;;;;10.90;4.70;;;;;;;2.20;100.00;98017.63;5347375;26;20015;-71
2024/04/11 04:36:22;;;;;;;7.32;3.90;;;;;;;2.09;100.00;98018.78;5354302;26;20082;-70
2024/04/11 04:38:49;;;;;;;;;;;;;;;1.92;100.00;98019.09;5347771;26;20004;-68
2024/04/11 04:41:16;;;;;;;5.97;4.07;;;;;;;1.86;100.00;98025.63;5354750;26;19958;-70
2024/04/11 04:43:43;;;;;;;9.60;4.55;;;;;;;1.83;100.00;98024.28;5362483;26;20032;-68
2024/04/11 04:46:09;;;;;;;10.48;6.20;;;;;;;1.91;100.00;98025.63;5355259;26;20112;-68
2024/04/11 04:48:34;;;;;;;7.88;4.88;;;;;;;1.70;100.00;98038.38;5382348;26;20014;-68
2024/04/11 04:51:00;;;;;;;10.60;4.38;;;;;;;1.58;100.00;98037.88;5362264;26;20000;-68
2024/04/11 04:53:25;;;;;;;6.97;4.05;;;;;;;1.50;100.00;98045.47;5338783;26;19996;-68
2024/04/11 04:55:52;;;;;;;9.88;4.80;;;;;;;1.57;100.00;98050.59;5359736;26;20008;-69
2024/04/11 04:58:18;;;;;;;10.05;4.80;;;;;;;1.52;100.00;98047.91;5347687;26;20076;-68
2024/04/11 05:00:44;;;;;;;9.80;4.25;;;;;;;1.52;100.00;98054.09;5363187;26;20000;-68
2024/04/11 05:03:10;;;;;;;10.00;4.95;;;;;;;1.62;100.00;98050.56;5364916;26;20330;-67
2024/04/11 05:05:38;;;;;;;8.32;4.53;;;;;;;1.68;100.00;98054.06;5388004;26;20027;-67
2024/04/11 05:08:07;;;;;;;7.70;4.03;;;;;;;1.81;100.00;98053.47;5354250;26;20004;-68
2024/04/11 05:10:37;;;;;;;12.30;4.53;;;;;;;1.92;100.00;98056.94;5360621;26;20011;-70
2024/04/11 05:13:09;;;;;;;11.07;4.65;;;;;;;1.87;100.00;98056.94;5357152;26;20012;-69
2024/04/11 05:15:39;;;;;;;12.63;5.53;;;;;;;1.98;100.00;98061.25;5360203;26;20004;-71
2024/04/11 05:18:05;;;;;;;;;;;;;;;2.36;100.00;98074.28;5350001;26;20002;-68
2024/04/11 05:20:34;;;;;;;7.75;4.43;;;;;;;2.92;100.00;98073.09;5360141;26;20315;-69
2024/04/11 05:22:59;;;;;;;19.38;5.32;;;;;;;3.11;100.00;98076.72;5361332;26;20081;-69
2024/04/11 05:25:29;;;;;;;12.20;5.00;;;;;;;3.75;100.00;98076.66;5353835;26;20460;-69
2024/04/11 05:27:55;;;;;;;8.57;4.25;;;;;;;4.06;100.00;98082.53;5346860;26;20013;-69
2024/04/11 05:30:21;;;;;;;8.18;4.32;;;;;;;4.45;100.00;98076.06;5347793;26;20007;-69
2024/04/11 05:32:47;;;;;;;8.90;3.75;;;;;;;4.32;100.00;98084.91;5362065;26;20355;-66
2024/04/11 05:35:14;;;;;;;9.63;4.45;;;;;;;4.50;100.00;98086.00;5353089;26;20001;-67
2024/04/11 05:37:40;;;;;;;11.02;4.20;;;;;;;5.14;100.00;98094.56;5372209;26;20051;-67
2024/04/11 05:40:06;;;;;;;8.25;3.35;;;;;;;5.42;100.00;98106.31;5352406;26;20552;-69
2024/04/11 05:42:33;;;;;;;8.57;3.88;;;;;;;5.95;100.00;98088.75;5359011;26;20004;-66
2024/04/11 05:44:59;;;;;;;9.65;3.88;;;;;;;6.58;100.00;98102.72;5353005;26;20016;-66
2024/04/11 05:47:24;;;;;;;11.50;4.38;;;;;;;7.12;100.00;98103.66;5349589;26;20436;-67
2024/04/11 05:49:50;;;;;;;13.15;4.65;;;;;;;7.90;100.00;98103.28;5344719;26;20000;-68
2024/04/11 05:52:17;;;;;;;12.35;3.80;;;;;;;8.28;100.00;98099.25;5336716;26;20027;-69
2024/04/11 05:54:43;;;;;;;11.95;4.40;;;;;;;8.72;100.00;98103.69;5342840;26;20012;-68
2024/04/11 05:57:08;;;;;;;13.32;5.32;;;;;;;8.91;100.00;98103.41;5390789;21;20068;-70
2024/04/11 05:59:36;;;;;;;25.27;11.55;;;;;;;8.68;100.00;98105.47;5385036;26;20069;-70
2024/04/11 06:02:03;;;;;;;26.70;12.60;;;;;;;8.94;100.00;98112.88;5371995;26;20000;-69
2024/04/11 06:04:29;;;;;;;37.78;16.90;;;;;;;9.38;100.00;98122.66;5374476;26;20015;-69
2024/04/11 06:06:55;;;;;;;34.70;15.23;;;;;;;9.58;100.00;98117.66;5361732;26;19995;-69
2024/04/11 06:09:20;;;;;;;69.18;33.00;;;;;;;9.12;100.00;98111.75;5380145;26;20018;-70
2024/04/11 06:11:45;;;;;;;57.45;25.52;;;;;;;10.52;100.00;98119.56;5385182;26;20015;-70
2024/04/11 06:14:11;;;;;;;28.77;13.55;;;;;;;11.09;98.98;98123.66;5388871;26;20491;-69
2024/04/11 06:16:39;;;;;;;18.92;6.75;;;;;;;11.50;98.67;98121.22;5383068;26;20015;-69
2024/04/11 06:19:06;;;;;;;23.52;10.70;;;;;;;12.23;88.97;98135.09;5359524;26;20449;-70
2024/04/11 06:21:36;;;;;;;14.20;7.50;;;;;;;12.28;87.91;98136.00;5367974;26;19996;-69
2024/04/11 06:24:04;;;;;;;14.38;6.18;;;;;;;11.30;96.14;98131.88;5393539;26;20072;-69
2024/04/11 06:26:30;;;;;;;14.23;4.70;;;;;;;9.15;100.00;98130.25;5366069;26;20350;-69
2024/04/11 06:28:56;;;;;;;8.50;3.83;;;;;;;11.02;100.00;98140.66;5395722;26;20003;-69
2024/04/11 06:31:28;;;;;;;13.25;4.70;;;;;;;12.42;90.32;98136.47;5384558;26;19995;-70
2024/04/11 06:33:54;;;;;;;20.55;4.95;;;;;;;12.78;85.04;98137.59;5387956;26;20410;-69
2024/04/11 06:36:20;;;;;;;15.32;4.55;;;;;;;13.14;84.18;98142.25;5374718;26;20067;-69
2024/04/11 06:38:46;;;;;;;11.45;4.05;;;;;;;13.51;82.09;98142.13;5396191;26;20073;-69
2024/04/11 06:41:18;;;;;;;9.70;3.45;;;;;;;14.09;75.42;98158.22;5381695;26;20096;-69
2024/04/11 06:43:46;;;;;;;8.05;3.63;;;;;;;11.64;87.50;98149.94;5360267;26;20078;-71
2024/04/11 06:46:13;;;;;;;10.20;4.25;;;;;;;10.45;100.00;98152.13;5384552;26;19999;-69
2024/04/11 06:48:40;;;;;;;10.13;3.70;;;;;;;10.97;99.97;98149.06;5382027;26;20350;-70
2024/04/11 06:51:09;;;;;;;10.63;5.28;;;;;;;8.68;100.00;98142.88;5388876;26;20657;-69
2024/04/11 06:53:36;;;;;;;12.18;4.82;;;;;;;9.54;100.00;98154.97;5383203;26;20018;-69
2024/04/11 06:56:07;;;;;;;11.82;4.53;;;;;;;10.19;100.00;98157.69;5411881;26;20010;-69
2024/04/11 06:58:34;;;;;;;10.95;4.25;;;;;;;11.56;100.00;98161.81;5383650;26;20036;-68
2024/04/11 07:01:01;;;;;;;9.77;3.95;;;;;;;10.86;100.00;98167.84;5409967;26;20101;-68
2024/04/11 07:03:27;;;;;;;8.23;4.07;;;;;;;10.43;100.00;98162.63;5390752;26;20864;-69
2024/04/11 07:08:44;;;;;;;16.83;3.95;;;;;;;13.53;81.85;98166.56;5393251;26;20489;-69
2024/04/11 07:11:18;;;;;;;10.77;4.00;;;;;;;14.24;76.89;98167.66;5391679;26;20014;-69
2024/04/11 07:13:45;;;;;;;7.35;3.47;;;;;;;14.58;73.54;98186.63;5387447;26;20005;-69
2024/04/11 07:16:16;;;;;;;14.05;4.60;;;;;;;14.91;71.33;98176.00;5384212;26;20004;-68
2024/04/11 07:18:44;;;;;;;9.70;3.40;;;;;;;15.70;62.24;98190.69;5383399;26;20836;-68
2024/04/11 07:21:13;;;;;;;8.70;4.78;;;;;;;15.32;64.14;98185.94;5387518;26;20106;-67
2024/04/11 07:23:42;;;;;;;13.40;3.90;;;;;;;16.07;62.20;98176.41;5394952;26;20000;-68
2024/04/11 07:26:11;;;;;;;7.35;3.53;;;;;;;13.69;72.06;98177.63;5386732;26;20009;-68
2024/04/11 07:28:39;;;;;;;;;;;;;;;13.28;84.55;98174.06;5393079;26;20563;-68
2024/04/11 07:31:05;;;;;;;8.55;3.90;;;;;;;14.54;73.27;98180.97;5388395;26;19932;-68
2024/04/11 07:33:30;;;;;;;8.13;3.65;;;;;;;14.25;74.29;98187.75;5379938;26;19996;-68
2024/04/11 07:35:56;;;;;;;9.32;4.13;;;;;;;14.49;72.49;98193.06;5393374;26;20000;-68
2024/04/11 07:38:26;;;;;;;10.60;3.90;;;;;;;15.10;67.53;98191.78;5388777;26;21163;-68
2024/04/11 07:40:54;;;;;;;9.98;3.53;;;;;;;15.09;64.36;98186.63;5392579;26;20010;-68
2024/04/11 07:43:24;;;;;;;11.57;6.93;;;;;;;12.76;84.19;98184.69;5373805;26;20000;-68
2024/04/11 07:45:51;;;;;;;10.10;4.50;;;;;;;13.26;86.00;98187.38;5375257;26;20085;-67
2024/04/11 07:48:16;;;;;;;9.32;3.90;;;;;;;14.13;76.42;98192.19;5387160;26;19999;-68
2024/04/11 07:50:44;;;;;;;11.13;4.38;;;;;;;11.44;94.36;98180.97;5364143;26;20504;-70
2024/04/11 07:53:16;;;;;;;9.75;4.38;;;;;;;13.94;84.40;98186.56;5388574;26;20341;-67
2024/04/11 07:55:44;;;;;;;8.73;3.28;;;;;;;16.69;64.94;98192.03;5396114;26;20014;-68
2024/04/11 07:58:18;;;;;;;9.18;3.25;;;;;;;17.23;58.86;98195.66;5387091;26;20072;-67
2024/04/11 08:00:47;;;;;;;9.20;3.38;;;;;;;13.97;64.51;98205.09;5397756;26;20014;-68
2024/04/11 08:03:16;;;;;;;9.48;3.47;;;;;;;13.04;74.71;98196.94;5372979;26;20070;-68
2024/04/11 08:05:42;;;;;;;11.63;3.60;;;;;;;13.65;78.83;98202.28;5379256;26;20008;-68
2024/04/11 08:08:07;;;;;;;5.65;3.28;;;;;;;14.96;70.65;98208.00;5378757;26;19999;-68
2024/04/11 08:10:35;;;;;;;7.07;2.92;;;;;;;16.33;61.13;98210.81;5401282;26;20008;-69
2024/04/11 08:13:01;;;;;;;6.57;3.10;;;;;;;16.27;58.84;98212.28;5389814;26;20010;-70
2024/04/11 08:15:27;;;;;;;7.60;3.13;;;;;;;17.16;55.54;98222.06;5400354;26;20000;-67
2024/04/11 08:17:52;;;;;;;9.07;3.42;;;;;;;15.37;60.12;98227.84;5394162;26;19999;-68
2024/04/11 08:20:19;;;;;;;7.78;3.20;;;;;;;15.78;63.66;98219.25;5385989;26;20014;-67
2024/04/11 08:22:46;;;;;;;9.70;3.58;;;;;;;17.64;55.04;98223.50;5380271;26;20856;-67
2024/04/11 08:25:12;;;;;;;8.32;3.25;;;;;;;17.03;53.94;98230.94;5365202;26;20007;-68
2024/04/11 08:27:44;;;;;;;8.82;3.10;;;;;;;17.60;54.17;98228.19;5379786;26;19997;-68
2024/04/11 08:30:15;;;;;;;11.82;3.50;;;;;;;17.32;55.43;98234.94;5380525;26;20010;-69
2024/04/11 08:32:45;;;;;;;11.52;4.00;;;;;;;15.57;62.14;98233.41;5365551;26;20015;-68
2024/04/11 08:35:18;;;;;;;6.18;2.95;;;;;;;15.56;62.22;98227.06;5367428;26;20011;-69
2024/04/11 08:37:51;;;;;;;11.63;3.50;;;;;;;16.97;57.86;98233.25;5394635;26;20045;-69
2024/04/11 08:40:17;;;;;;;10.38;3.10;;;;;;;18.65;52.23;98237.28;5369255;26;20003;-68
2024/04/11 08:42:43;;;;;;;8.27;3.13;;;;;;;18.82;51.42;98241.44;5394667;26;20529;-69
2024/04/11 08:45:09;;;;;;;8.85;3.60;;;;;;;18.12;50.54;98235.56;5386223;26;20050;-68
2024/04/11 08:47:35;;;;;;;10.20;4.03;;;;;;;19.57;47.30;98245.88;5376137;26;20000;-68
2024/04/11 08:50:01;;;;;;;14.93;4.82;;;;;;;19.72;47.92;98241.22;5382328;26;20022;-68
2024/04/11 08:52:31;;;;;;;8.82;2.97;;;;;;;18.30;51.57;98230.22;5373163;26;19999;-68
2024/04/11 08:54:56;;;;;;;;;;;;;;;17.85;52.31;98232.09;5384065;26;20003;-68
2024/04/11 08:57:22;;;;;;;7.97;3.20;;;;;;;18.50;51.12;98230.00;5369521;26;20459;-69
2024/04/11 08:59:48;;;;;;;7.05;3.55;;;;;;;18.83;49.59;98240.22;5398821;26;20008;-70
2024/04/11 09:02:14;;;;;;;8.00;3.40;;;;;;;19.23;48.89;98241.34;5372719;26;20000;-69
2024/04/11 09:04:39;;;;;;;8.90;3.03;;;;;;;18.97;47.06;98236.00;5382515;26;19999;-68
2024/04/11 09:07:04;;;;;;;9.82;3.30;;;;;;;18.41;50.64;98235.09;5390135;26;20010;-68
2024/04/11 09:09:33;;;;;;;13.05;4.40;;;;;;;19.04;47.29;98239.59;5393007;26;20119;-69
2024/04/11 09:11:59;;;;;;;6.47;3.17;;;;;;;18.71;46.56;98248.84;5390960;26;20485;-68
2024/04/11 09:14:25;;;;;;;6.72;2.85;;;;;;;18.54;48.97;98242.72;5387550;26;20050;-68
2024/04/11 09:17:01;;;;;;;6.68;3.95;;;;;;;18.77;48.65;98236.19;5392282;26;20046;-69
2024/04/11 09:19:26;;;;;;;17.10;8.05;;;;;;;18.53;51.42;98237.59;5371684;26;20001;-69
2024/04/11 09:21:53;;;;;;;10.68;4.25;;;;;;;17.93;52.37;98233.78;5393853;26;20457;-71
2024/04/11 09:24:18;;;;;;;11.70;4.30;;;;;;;18.07;52.36;98227.59;5371909;26;19999;-69
2024/04/11 09:26:45;;;;;;;6.22;3.45;;;;;;;17.73;53.94;98227.56;5372235;26;20536;-69
2024/04/11 09:29:11;;;;;;;7.95;3.90;;;;;;;18.27;50.13;98238.50;5380329;26;19995;-69
2024/04/11 09:31:40;;;;;;;8.55;3.15;;;;;;;18.66;49.51;98243.63;5379567;26;19999;-69
2024/04/11 09:34:13;;;;;;;9.70;3.63;;;;;;;19.22;49.17;98245.28;5375061;26;20288;-69
2024/04/11 09:36:49;;;;;;;7.07;3.28;;;;;;;17.05;53.76;98240.50;5408093;26;20003;-69
2024/04/11 09:39:41;;;;;;;12.90;6.03;;;;;;;18.32;51.71;98241.72;5387177;26;20587;-69
2024/04/11 09:42:12;;;;;;;13.93;4.72;;;;;;;19.26;49.45;98248.88;5385871;26;20470;-70
2024/04/11 09:44:46;;;;;;;10.02;4.28;;;;;;;19.14;49.13;98242.84;5387590;26;20015;-70
2024/04/11 09:47:14;;;;;;;8.00;3.50;;;;;;;19.21;49.68;98240.94;5370105;26;20016;-69
2024/04/11 09:49:42;;;;;;;8.52;3.53;;;;;;;18.76;50.65;98245.69;5383844;26;20011;-69
2024/04/11 09:52:10;;;;;;;8.50;3.78;;;;;;;18.30;52.34;98240.53;5391520;26;20056;-69
2024/04/11 09:54:38;;;;;;;10.02;4.50;;;;;;;18.46;51.03;98241.06;5377253;26;20011;-69
2024/04/11 09:57:05;;;;;;;11.80;6.47;;;;;;;19.70;49.58;98235.22;5370463;26;20011;-69
2024/04/11 09:59:31;;;;;;;12.13;5.63;;;;;;;20.33;45.58;98231.09;5391391;26;20058;-69
2024/04/11 10:02:01;;;;;;;28.48;15.68;;;;;;;20.47;45.03;98229.53;5409989;26;19995;-69
2024/04/11 10:04:42;;;;;;;120.13;94.13;;;;;;;20.10;46.11;98247.34;5393562;26;20080;-69
2024/04/11 10:07:09;;;;;;;39.97;26.40;;;;;;;19.61;48.54;98247.50;5392744;26;20338;-69
2024/04/11 10:09:35;;;;;;;32.58;19.33;;;;;;;19.51;47.42;98239.13;5378090;26;20623;-69
2024/04/11 10:12:11;;;;;;;41.97;27.42;;;;;;;20.35;45.55;98247.41;5360224;26;20016;-68
2024/04/11 10:14:39;;;;;;;25.05;14.43;;;;;;;19.05;48.05;98243.16;5396830;26;20080;-69
2024/04/11 10:17:05;;;;;;;14.15;6.28;;;;;;;19.15;49.30;98233.34;5375976;26;20014;-68
2024/04/11 10:19:38;;;;;;;15.55;7.35;;;;;;;18.85;48.29;98234.28;5382848;26;20595;-69
2024/04/11 10:22:08;;;;;;;8.02;3.90;;;;;;;18.83;47.84;98231.13;5380210;26;20023;-69
2024/04/11 10:24:36;;;;;;;;;;;;;;;19.43;47.76;98227.16;5397258;26;20027;-69
2024/04/11 10:27:13;;;;;;;20.48;11.80;;;;;;;18.44;50.66;98226.78;5378251;26;20055;-68
2024/04/11 10:29:46;;;;;;;32.28;24.17;;;;;;;18.44;51.26;98223.19;5382719;26;20004;-69
2024/04/11 10:32:35;;;;;;;9.18;4.10;;;;;;;16.89;54.95;98215.75;5389493;26;20004;-69
2024/04/11 10:35:02;;;;;;;39.65;25.73;;;;;;;18.40;53.05;98216.84;5386103;26;20031;-70
2024/04/11 10:37:32;;;;;;;12.98;4.93;;;;;;;18.11;52.47;98209.03;5393027;26;20032;-68
2024/04/11 10:39:59;;;;;;;19.23;10.55;;;;;;;18.11;53.60;98222.09;5395476;26;20014;-69
2024/04/11 10:43:11;;;;;;;24.52;14.55;;;;;;;17.57;52.69;98215.88;5388076;26;20010;-69
2024/04/11 10:45:11;;;;;;;11.27;7.22;;;;;;;17.92;53.42;98218.31;5381289;26;20027;-69
2024/04/11 10:47:41;;;;;;;11.70;4.63;;;;;;;18.08;53.37;98222.88;5389962;26;20806;-69
2024/04/11 10:50:09;;;;;;;;;;;;;;;18.53;50.26;98229.25;5368768;26;20342;-69
2024/04/11 10:52:39;;;;;;;10.57;3.97;;;;;;;16.99;53.11;98228.13;5396927;26;19932;-69
2024/04/11 10:55:13;;;;;;;12.18;3.90;;;;;;;16.87;54.18;98225.56;5390500;26;20067;-69
2024/04/11 10:57:41;;;;;;;8.57;3.50;;;;;;;16.78;55.81;98215.53;5395511;26;20046;-69
2024/04/11 11:00:10;;;;;;;13.30;4.30;;;;;;;16.90;56.55;98219.28;5403485;26;20414;-68
2024/04/11 11:02:40;;;;;;;6.25;3.20;;;;;;;16.36;56.07;98215.59;5407805;26;20049;-69
2024/04/11 11:05:07;;;;;;;6.90;3.90;;;;;;;16.68;55.76;98221.69;5394773;26;20014;-69
2024/04/11 11:07:36;;;;;;;6.25;2.90;;;;;;;16.60;55.72;98214.44;5397395;26;20313;-70
2024/04/11 11:10:11;;;;;;;6.13;2.80;;;;;;;17.07;53.96;98221.53;5395821;26;19999;-68
2024/04/11 11:12:37;;;;;;;8.35;3.58;;;;;;;16.35;53.48;98220.34;5381389;26;20396;-68
2024/04/11 11:15:03;;;;;;;10.85;3.85;;;;;;;15.86;57.14;98218.22;5375743;26;19999;-68
2024/04/11 11:17:31;;;;;;;8.10;3.17;;;;;;;15.89;55.46;98219.47;5396001;26;20493;-69
2024/04/11 11:19:58;;;;;;;7.45;3.08;;;;;;;15.98;56.45;98211.75;5396591;26;20007;-69
2024/04/11 11:22:37;;;;;;;5.10;2.28;;;;;;;15.91;55.58;98214.38;5388798;26;20627;-68
2024/04/11 11:25:08;;;;;;;14.85;4.53;;;;;;;16.37;55.32;98208.94;5390637;26;20004;-68
2024/04/11 11:27:35;;;;;;;9.57;3.15;;;;;;;16.48;53.92;98209.09;5394883;26;19996;-68
2024/04/11 11:30:05;;;;;;;9.30;3.50;;;;;;;16.49;53.62;98208.72;5395145;26;20832;-69
2024/04/11 11:32:35;;;;;;;6.45;2.80;;;;;;;16.36;54.42;98199.03;5380626;26;20518;-68
2024/04/11 11:35:05;;;;;;;10.48;3.85;;;;;;;16.36;54.43;98205.34;5382853;26;20012;-68
2024/04/11 11:37:31;;;;;;;11.43;3.97;;;;;;;16.22;55.52;98202.31;5375783;26;20000;-69